• Join FlightAware (Why Join?)
  • Login
  • US Flag 
01:47AM EDT


 

Airport Tracker/Info


-or-


 

Live Flight TrackerFlight Track Log ✈ OPT429 ✈ 19-Jun-2014 ✈ KPWK - KCPS

Flight Track Log - Related Links

Times and Time Zones

All times are in EDT time to prevent confusion due to time zone crossing. See the OPT429 flight status page for this flight to view local times or setup timezone preferences in your user account.

Time Position Orientation Groundspeed Altitude Reporting Facility
EDT Latitude Longitude Course Direction KTS MPH feet Rate Location/Type
04:08PM 42.1333 -87.8500 204° Southwest 162 186 2,200  Level Chicago TRACON
04:09PM 42.1667 -87.8167 37° Northeast 198 228 4,000 1,260 Climbing Chicago TRACON
04:10PM 42.2011 -87.8286 346° North 215 247 4,200 1,740 Climbing Chicago Center
04:11PM 42.2233 -87.9147 289° West 225 259 6,800 2,580 Climbing Chicago Center
04:12PM 42.2200 -88.0028 267° West 266 306 9,600 2,700 Climbing Chicago Center
04:13PM 42.1453 -88.0075 183° South 278 320 12,500 2,640 Climbing Chicago Center
04:14PM 41.6840 -88.0963 204° Southwest  Level FlightAware Approximate
04:14PM 42.0606 -87.9978 175° South 287 330 15,100  Level Chicago Center
04:15PM 41.9722 -87.9858 174° South 321 369 16,600 1,440 Climbing Chicago Center
04:16PM 41.8742 -88.0014 187° South 344 396 18,100 1,620 Climbing Chicago Center
04:17PM 41.7819 -88.0428 199° South 345 397 20,000 1,740 Climbing Chicago Center
04:18PM 41.6906 -88.0825 198° South 347 399 21,800 1,440 Climbing Chicago Center
04:19PM 41.5978 -88.1328 202° Southwest 365 420 23,000 540 Climbing Chicago Center
04:20PM 41.4964 -88.2075 209° Southwest 355 409 23,000  Level Chicago Center
04:21PM 41.4158 -88.2625 207° Southwest 337 388 23,000 480 Level Chicago Center
04:22PM 41.3386 -88.3153 207° Southwest 318 366 24,000 480 Climbing Chicago Center
04:23PM 41.2603 -88.3692 207° Southwest 318 366 24,000  Level Chicago Center
04:24PM 41.1675 -88.4336 208° Southwest 318 366 24,000  Level Chicago Center
04:25PM 41.0917 -88.4853 207° Southwest 312 359 24,000  Level Chicago Center
04:26PM 41.0178 -88.5367 208° Southwest 304 350 24,000  Level Chicago Center
04:27PM 40.9436 -88.5883 208° Southwest 304 350 24,000  Level Chicago Center
04:28PM 40.8697 -88.6397 208° Southwest 303 349 24,000  Level Chicago Center
04:29PM 40.7797 -88.7003 207° Southwest 303 349 24,000  Level Chicago Center
04:30PM 40.7067 -88.7508 208° Southwest 302 348 24,000  Level Chicago Center
04:32PM 40.6333 -88.8011 207° Southwest 301 346 24,000  Level Chicago Center
04:33PM 40.5533 -88.8564 208° Southwest 301 346 24,000  Level Chicago Center
04:34PM 40.4772 -88.9061 206° Southwest 301 346 24,000  Level Chicago Center
04:35PM 40.4025 -88.9569 207° Southwest 301 346 24,000  Level Chicago Center
04:36PM 40.3292 -89.0072 208° Southwest 299 344 24,000  Level Chicago Center
04:37PM 40.2542 -89.0572 207° Southwest 299 344 24,000  Level Chicago Center
04:38PM 40.1806 -89.1056 207° Southwest 295 339 24,000  Level Chicago Center
04:38PM 40.1206 -89.1447 207° Southwest 299 344 24,000  Level Kansas City Center
04:39PM 40.0469 -89.1939 207° Southwest 298 343 24,000  Level Kansas City Center
04:40PM 39.9733 -89.2433 207° Southwest 298 343 24,000 -420 Level Kansas City Center
04:42PM 39.8989 -89.2931 207° Southwest 298 343 23,200 -900 Descending Kansas City Center
04:43PM 39.8236 -89.3433 207° Southwest 299 344 22,200 -1,020 Descending Kansas City Center
04:44PM 39.7481 -89.3931 207° Southwest 300 345 21,200 -1,140 Descending Kansas City Center
04:45PM 39.6611 -89.4500 207° Southwest 301 346 20,000 -1,260 Descending Kansas City Center
04:46PM 39.5847 -89.5006 207° Southwest 302 348 18,600 -1,620 Descending Kansas City Center
04:47PM 39.5039 -89.5553 208° Southwest 320 368 16,700 -2,040 Descending Kansas City Center
04:48PM 39.4189 -89.6092 206° Southwest 335 386 14,500 -2,280 Descending Kansas City Center
04:49PM 39.3189 -89.6744 207° Southwest 338 389 12,100 -1,200 Descending Kansas City Center
04:50PM 39.2469 -89.7258 209° Southwest 301 346 12,000 -60 Descending Kansas City Center
04:51PM 39.2019 -89.7961 230° Southwest 261 300 12,000 -420 Level Kansas City Center
04:52PM 39.1331 -89.8331 203° Southwest 242 278 11,200 -1,140 Descending Kansas City Center
04:53PM 39.0719 -89.8697 205° Southwest 242 278 9,700 -1,500 Descending Kansas City Center
04:54PM 39.0103 -89.9083 206° Southwest 231 266 8,100 -1,500 Descending Kansas City Center
04:55PM 38.9531 -89.9375 202° Southwest 225 259 6,600 -1,560 Descending Kansas City Center
04:56PM 38.8964 -89.9692 204° Southwest 219 252 5,000 -1,500 Descending Kansas City Center
04:57PM 38.8419 -90.0000 204° Southwest 216 249 3,600 -960 Descending Kansas City Center
04:58PM 38.7892 -90.0306 204° Southwest 210 242 3,000 -300 Descending Kansas City Center
04:59PM 38.7383 -90.0597 204° Southwest 201 231 3,000 -60 Level Kansas City Center
05:00PM 38.6922 -90.1014 215° Southwest 204 235 2,900 -480 Descending Kansas City Center
05:01PM 38.6497 -90.1428 217° Southwest 193 222 2,100 -780 Descending Kansas City Center
05:02PM 38.6075 -90.1839 217° Southwest 140 161 1,400 -720 Descending Kansas City Center
05:03PM 38.5803 -90.1769 169° South 116 133 700 -420 Descending Kansas City Center
05:04PM 38.5581 -90.1394 127° Southeast 119 137 600 -120 Descending Kansas City Center
05:06PM 38.5704 -90.1551 315° West  Level Estimated
05:13PM 38.5667 -90.1500 90° East  Level FlightAware Approximate